Flight Track Log - Related Links

Times and Time Zones

All times are in EDT time to prevent confusion due to time zone crossing. See the SKQ53 flight status page for this flight to view local times or setup timezone preferences in your user account.

Time Position Orientation Groundspeed Altitude Reporting Facility
EDT Latitude Longitude Course Direction KTS MPH feet Rate Location/Type
Fri 07:10:00 AM 40.8333 -74.3500 155° Southeast 160 184 2,000  Level New York TRACON
Fri 07:11:00 AM 40.7833 -74.3333 166° South 233 268 2,100 1,212 Climbing New York TRACON
Fri 07:13:18 AM 40.6667 -74.3142 173° South 182 209 6,000 1,176 Climbing New York Center
Fri 07:14:19 AM 40.6111 -74.2947 165° South 200 230 6,000  Level New York Center
Fri 07:15:00 AM 40.5626 -74.6896 155° Southeast  Level Estimated
Fri 07:15:20 AM 40.5450 -74.2722 165° South 237 273 6,000  Level New York Center
Fri 07:16:18 AM 40.4814 -74.2444 162° South 243 280 6,000  Level New York Center
Fri 07:17:19 AM 40.4258 -74.2172 160° South 243 280 6,000 1,000 Level New York Center
Fri 07:19:18 AM 40.3150 -74.1625 159° South 203 234 9,000 1,425 Climbing New York Center
Fri 07:20:20 AM 40.2625 -74.1764 191° South 167 192 10,300 984 Climbing New York Center
Fri 07:21:20 AM 40.2097 -74.1956 196° South 182 209 11,000 350 Climbing New York Center
Fri 07:22:20 AM 40.1489 -74.2114 191° South 215 247 11,000 3,559 Level New York Center
Fri 07:23:18 AM 40.0878 -74.2300 193° South 241 277 18,000 1,513 Climbing New York Center
Fri 07:24:19 AM 40.0353 -74.2439 191° South 217 250 14,000 -2,000 Descending New York Center
Fri 07:25:18 AM 39.9781 -74.2817 207° Southwest 245 282 14,000 150 Level New York Center
Fri 07:26:19 AM 39.9244 -74.3303 215° Southwest 245 282 14,300 1,070 Climbing New York Center
Fri 07:27:55 AM 39.8575 -74.3969 217° Southwest 211 243 16,800 1,403 Climbing Washington Center
Fri 07:28:53 AM 39.8122 -74.4353 213° Southwest 205 236 17,900 1,000 Climbing Washington Center
Fri 07:29:55 AM 39.7772 -74.4844 227° Southwest 200 230 18,800 878 Climbing Washington Center
Fri 07:30:56 AM 39.7400 -74.5364 227° Southwest 195 224 19,700 966 Climbing Washington Center
Fri 07:31:53 AM 39.7008 -74.5856 224° Southwest 195 224 20,700 950 Climbing Washington Center
Fri 07:32:56 AM 39.6597 -74.6400 226° Southwest 200 230 21,600 650 Climbing Washington Center
Fri 07:33:53 AM 39.6206 -74.6917 225° Southwest 200 230 22,000 202 Climbing Washington Center
Fri 07:34:55 AM 39.5753 -74.7542 227° Southwest 207 238 22,000  Level Washington Center
Fri 07:35:56 AM 39.5275 -74.8167 225° Southwest 228 262 22,000  Level Washington Center
Fri 07:36:54 AM 39.4781 -74.8817 225° Southwest 247 284 22,000  Level Washington Center
Fri 07:37:54 AM 39.4283 -74.9467 225° Southwest 252 290 22,000  Level Washington Center
Fri 07:38:55 AM 39.3786 -75.0117 225° Southwest 252 290 22,000  Level Washington Center
Fri 07:39:56 AM 39.3289 -75.0736 224° Southwest 252 290 22,000  Level Washington Center
Fri 07:40:54 AM 39.2792 -75.1411 226° Southwest 252 290 22,000  Level Washington Center
Fri 07:41:55 AM 39.2317 -75.2031 225° Southwest 252 290 22,000  Level Washington Center
Fri 07:42:56 AM 39.1817 -75.2675 225° Southwest 252 290 22,000  Level Washington Center
Fri 07:43:56 AM 39.1339 -75.3347 228° Southwest 252 290 22,000  Level Washington Center
Fri 07:44:54 AM 39.0842 -75.3964 224° Southwest 252 290 22,000  Level Washington Center
Fri 07:45:54 AM 39.0319 -75.4608 224° Southwest 252 290 22,000  Level Washington Center
Fri 07:46:55 AM 38.9842 -75.5247 226° Southwest 246 283 22,000  Level Washington Center
Fri 07:47:55 AM 38.9361 -75.5864 225° Southwest 251 289 22,000  Level Washington Center
Fri 07:48:55 AM 38.8861 -75.6503 225° Southwest 251 289 22,000  Level Washington Center
Fri 07:50:08 AM 38.8278 -75.7250 225° Southwest 251 289 22,000  Level Washington Center
Fri 07:51:05 AM 38.7778 -75.7833 222° Southwest 251 289 22,000  Level Washington Center
Fri 07:52:07 AM 38.7275 -75.8497 226° Southwest 251 289 22,000  Level Washington Center
Fri 07:53:08 AM 38.6772 -75.9161 226° Southwest 251 289 22,000  Level Washington Center
Fri 07:54:06 AM 38.6272 -75.9769 224° Southwest 251 289 22,000  Level Washington Center
Fri 07:55:07 AM 38.5728 -76.0458 225° Southwest 251 289 22,000  Level Washington Center
Fri 07:56:07 AM 38.5203 -76.1064 222° Southwest 251 289 22,000  Level Washington Center
Fri 07:57:06 AM 38.4700 -76.1725 226° Southwest 251 289 22,000  Level Washington Center
Fri 07:58:07 AM 38.4197 -76.2356 225° Southwest 251 289 22,000  Level Washington Center
Fri 07:59:07 AM 38.3672 -76.2986 223° Southwest 256 295 22,000  Level Washington Center
Fri 08:00:08 AM 38.3167 -76.3644 226° Southwest 256 295 22,000  Level Washington Center
Fri 08:01:06 AM 38.2683 -76.4222 223° Southwest 249 287 22,000  Level Washington Center
Fri 08:02:06 AM 38.2178 -76.4875 225° Southwest 254 292 22,000  Level Washington Center
Fri 08:03:08 AM 38.1467 -76.5211 200° South 259 298 22,000  Level Washington Center
Fri 08:04:06 AM 38.0775 -76.5544 201° Southwest 264 304 22,000  Level Washington Center
Fri 08:05:07 AM 38.0083 -76.5906 202° Southwest 269 310 22,000  Level Washington Center
Fri 08:06:07 AM 37.9539 -76.6453 218° Southwest 264 304 22,000  Level Washington Center
Fri 08:07:08 AM 37.9156 -76.7158 235° Southwest 248 285 22,000  Level Washington Center
Fri 08:08:06 AM 37.8689 -76.7886 231° Southwest 256 295 22,000 -356 Level Washington Center
Fri 08:09:06 AM 37.8244 -76.8589 231° Southwest 261 300 21,300 -984 Descending Washington Center
Fri 08:10:08 AM 37.7756 -76.9369 232° Southwest 272 313 20,000 -639 Descending Washington Center
Fri 08:11:08 AM 37.7247 -77.0122 230° Southwest 282 325 20,000  Level Washington Center
Fri 08:12:06 AM 37.6822 -77.0769 230° Southwest 276 318 20,000  Level Washington Center
Fri 08:13:07 AM 37.6375 -77.1444 230° Southwest 276 318 20,000  Level Washington Center
Fri 08:14:07 AM 37.5928 -77.2142 231° Southwest 271 312 20,000  Level Washington Center
Fri 08:15:06 AM 37.5461 -77.2839 230° Southwest 271 312 20,000  Level Washington Center
Fri 08:16:06 AM 37.5014 -77.3508 230° Southwest 266 306 20,000  Level Washington Center
Fri 08:17:07 AM 37.4564 -77.4206 231° Southwest 261 300 20,000  Level Washington Center
Fri 08:18:07 AM 37.4094 -77.4875 229° Southwest 261 300 20,000  Level Washington Center
Fri 08:19:06 AM 37.3647 -77.5569 231° Southwest 256 295 20,000  Level Washington Center
Fri 08:20:07 AM 37.3197 -77.6236 230° Southwest 256 295 20,000  Level Washington Center
Fri 08:21:08 AM 37.2769 -77.6878 230° Southwest 256 295 20,000  Level Washington Center
Fri 08:22:08 AM 37.2256 -77.7644 230° Southwest 256 295 20,000  Level Washington Center
Fri 08:23:08 AM 37.1825 -77.8311 231° Southwest 256 295 20,000  Level Washington Center
Fri 08:24:06 AM 37.1375 -77.8975 230° Southwest 256 295 20,000  Level Washington Center
Fri 08:25:06 AM 37.0903 -77.9664 229° Southwest 256 295 20,000 -149 Level Washington Center
Fri 08:26:07 AM 37.0450 -78.0328 229° Southwest 256 295 19,700 -595 Descending Washington Center
Fri 08:27:07 AM 36.9956 -78.1039 229° Southwest 256 295 18,800 -1,190 Descending Washington Center
Fri 08:28:08 AM 36.9458 -78.1831 232° Southwest 280 322 17,300 -1,450 Descending Washington Center
Fri 08:29:07 AM 36.8942 -78.2592 230° Southwest 291 335 15,900 -1,450 Descending Washington Center
Fri 08:30:08 AM 36.8425 -78.3325 229° Southwest 291 335 14,400 -1,488 Descending Washington Center
Fri 08:31:08 AM 36.7886 -78.4086 229° Southwest 291 335 12,900 -1,424 Descending Washington Center
Fri 08:32:06 AM 36.7386 -78.4844 231° Southwest 291 335 11,600 -1,373 Descending Washington Center
Fri 08:33:06 AM 36.6889 -78.5603 231° Southwest 291 335 10,200 -1,438 Descending Washington Center
Fri 08:34:07 AM 36.6436 -78.6233 228° Southwest 292 336 8,700 -1,438 Descending Washington Center
Fri 08:35:07 AM 36.5936 -78.6939 229° Southwest 281 323 7,300 -1,486 Descending Washington Center
Fri 08:35:52 AM 36.5525 -78.7489 227° Southwest 261 300 6,100 -830 Descending Washington Center
Fri 08:36:41 AM 36.5178 -78.7992 229° Southwest 239 275 6,000 -53 Descending Washington Center
Fri 08:37:46 AM 36.4744 -78.8647 231° Southwest 223 257 6,000  Level Washington Center
Fri 08:38:46 AM 36.4289 -78.9247 227° Southwest 230 265 6,000 -579 Level Washington Center
Fri 08:39:40 AM 36.3897 -78.9797 229° Southwest 246 283 4,900 -919 Descending Washington Center
Fri 08:40:50 AM 36.3356 -79.0547 228° Southwest 256 295 4,100 -844 Descending Washington Center
Fri 08:41:48 AM 36.2919 -79.1147 228° Southwest 238 274 3,100 -508 Descending Washington Center
Fri 08:42:48 AM 36.2483 -79.1772 229° Southwest 236 272 3,100  Level Washington Center
Fri 08:44:08 AM 36.1986 -79.2419 226° Southwest 236 272 3,100  Level Washington Center
Fri 08:45:08 AM 36.1547 -79.3042 229° Southwest 231 266 3,100  Level Washington Center
Fri 08:47:00 AM 36.0671 -79.4163 219° Southwest  Level FlightAware Approximate
Fri 08:54:00 AM 36.0333 -79.4667 231° Southwest  Level FlightAware Approximate
Fri 08:55:00 AM 36.0485 -79.4749 231° Southwest  Level Estimated
Fri 08:56:00 AM 36.0485 -79.4749 231° Southwest  Level Estimated
Fri 08:57:00 AM 36.0485 -79.4749 231° Southwest  Level Estimated
Fri 08:58:00 AM 36.0485 -79.4749 231° Southwest  Level Estimated
Fri 08:59:00 AM 36.0485 -79.4749 231° Southwest  Level Estimated
Fri 09:00:00 AM 36.0485 -79.4749 231° Southwest  Level Estimated

Login

Don't have an account? Register now (free) for customized features, flight alerts, and more!